createdAt,value
2018-09-25T00:01:48.673Z,4.13
2018-09-25T00:04:26.717Z,4.07
2018-09-25T00:07:05.245Z,3.95
2018-09-25T00:09:43.544Z,3.87
2018-09-25T00:12:23.082Z,3.82
2018-09-25T00:15:00.937Z,3.88
2018-09-25T00:17:40.191Z,3.85
2018-09-25T00:20:18.390Z,3.88
2018-09-25T00:22:56.612Z,3.92
2018-09-25T00:25:35.634Z,3.95
2018-09-25T00:28:14.109Z,3.90
2018-09-25T00:30:52.277Z,3.86
2018-09-25T00:33:31.236Z,3.80
2018-09-25T00:36:09.238Z,3.73
2018-09-25T00:38:47.549Z,3.62
2018-09-25T00:41:25.661Z,3.61
2018-09-25T00:44:04.301Z,3.57
2018-09-25T00:46:42.610Z,3.51
2018-09-25T00:49:21.097Z,3.53
2018-09-25T00:51:59.065Z,3.53
2018-09-25T00:54:37.560Z,3.47
2018-09-25T00:57:15.445Z,3.48
2018-09-25T00:59:54.725Z,3.52
2018-09-25T01:02:32.648Z,3.50
2018-09-25T01:05:10.876Z,3.47
2018-09-25T01:07:49.560Z,3.47
2018-09-25T01:10:27.850Z,3.45
2018-09-25T01:13:06.104Z,3.41
2018-09-25T01:15:44.316Z,3.46
2018-09-25T01:18:22.372Z,3.45
2018-09-25T01:21:00.883Z,3.38
2018-09-25T01:23:40.080Z,3.42
2018-09-25T01:26:18.383Z,3.62
2018-09-25T01:28:56.852Z,3.57
2018-09-25T01:31:35.356Z,3.39
2018-09-25T01:34:13.356Z,3.40
2018-09-25T01:36:52.861Z,3.38
2018-09-25T01:39:31.861Z,3.37
2018-09-25T01:42:11.524Z,3.37
2018-09-25T01:44:50.096Z,3.26
2018-09-25T01:47:28.634Z,3.12
2018-09-25T01:50:06.669Z,3.08
2018-09-25T01:52:45.279Z,3.05
2018-09-25T01:55:23.404Z,2.99
2018-09-25T01:58:02.487Z,3.03
2018-09-25T02:00:40.432Z,3.09
2018-09-25T02:03:18.772Z,3.11
2018-09-25T02:05:56.615Z,3.08
2018-09-25T02:08:36.217Z,3.12
2018-09-25T02:11:14.099Z,3.03
2018-09-25T02:13:52.704Z,3.04
2018-09-25T02:16:30.663Z,2.99
2018-09-25T02:19:08.956Z,2.94
2018-09-25T02:21:48.008Z,2.89
2018-09-25T02:24:26.247Z,2.87
2018-09-25T02:27:05.035Z,2.92
2018-09-25T02:29:43.844Z,2.91
2018-09-25T02:32:22.052Z,2.97
2018-09-25T02:35:00.328Z,3.08
2018-09-25T02:37:38.546Z,3.10
2018-09-25T02:40:17.144Z,3.19
2018-09-25T02:42:55.992Z,3.14
2018-09-25T02:45:34.591Z,3.13
2018-09-25T02:48:12.888Z,3.14
2018-09-25T02:50:52.352Z,3.21
2018-09-25T02:53:30.518Z,3.20
2018-09-25T02:56:09.017Z,3.13
2018-09-25T02:58:46.920Z,2.95
2018-09-25T03:01:26.464Z,2.78
2018-09-25T03:04:04.624Z,2.67
2018-09-25T03:06:43.072Z,2.71
2018-09-25T03:09:21.218Z,2.73
2018-09-25T03:11:59.940Z,2.66
2018-09-25T03:14:38.340Z,2.65
2018-09-25T03:17:16.572Z,2.71
2018-09-25T03:19:56.331Z,2.71
2018-09-25T03:22:34.647Z,2.69
2018-09-25T03:25:13.386Z,2.78
2018-09-25T03:27:51.660Z,2.85
2018-09-25T03:30:32.508Z,2.72
2018-09-25T03:33:12.038Z,2.65
2018-09-25T03:35:50.070Z,2.58
2018-09-25T03:38:28.953Z,2.51
2018-09-25T03:41:06.771Z,2.47
2018-09-25T03:43:44.990Z,2.39
2018-09-25T03:46:23.156Z,2.23
2018-09-25T03:49:01.401Z,2.19
2018-09-25T03:51:39.556Z,2.29
2018-09-25T03:54:17.856Z,2.34
2018-09-25T03:56:56.688Z,2.37
2018-09-25T03:59:35.383Z,2.36
2018-09-25T04:02:13.148Z,2.30
2018-09-25T04:04:51.628Z,2.25
2018-09-25T04:07:30.586Z,2.24
2018-09-25T04:10:09.009Z,2.36
2018-09-25T04:15:29.381Z,2.48
2018-09-25T04:18:07.569Z,2.45
2018-09-25T04:20:47.780Z,2.40
2018-09-25T04:23:25.918Z,2.42
2018-09-25T04:26:04.768Z,2.38
2018-09-25T04:28:43.969Z,2.41
2018-09-25T04:31:22.476Z,2.33
2018-09-25T04:34:02.464Z,2.21
2018-09-25T04:36:40.861Z,2.24
2018-09-25T04:39:18.870Z,2.31
2018-09-25T04:41:57.485Z,2.30
2018-09-25T04:44:35.661Z,2.29
2018-09-25T04:47:13.719Z,2.32
2018-09-25T04:49:52.380Z,2.34
2018-09-25T04:52:30.820Z,2.41
2018-09-25T04:55:08.809Z,2.50
2018-09-25T04:57:47.164Z,2.40
2018-09-25T05:00:25.199Z,2.34
2018-09-25T05:03:05.821Z,2.37
2018-09-25T05:05:43.897Z,2.22
2018-09-25T05:08:23.467Z,2.11
2018-09-25T05:11:01.585Z,2.07
2018-09-25T05:13:39.961Z,2.09
2018-09-25T05:16:18.285Z,2.09
2018-09-25T05:18:56.900Z,2.02
2018-09-25T05:21:37.682Z,1.97
2018-09-25T05:24:20.077Z,1.98
2018-09-25T05:27:03.735Z,2.03
2018-09-25T05:29:42.316Z,2.20
2018-09-25T05:32:21.253Z,2.48
2018-09-25T05:35:00.802Z,2.46
2018-09-25T05:37:40.561Z,2.39
2018-09-25T05:40:29.515Z,2.25
2018-09-25T05:43:09.046Z,2.15
2018-09-25T05:45:48.585Z,2.10
2018-09-25T05:48:28.023Z,2.16
2018-09-25T05:51:07.324Z,2.22
2018-09-25T05:53:47.725Z,2.25
2018-09-25T05:56:27.412Z,2.32
2018-09-25T05:59:06.344Z,2.31
2018-09-25T06:01:44.738Z,2.33
2018-09-25T06:04:22.712Z,2.48
2018-09-25T06:07:01.005Z,2.75
2018-09-25T06:09:38.968Z,2.89
2018-09-25T06:12:18.332Z,2.90
2018-09-25T06:14:57.145Z,3.07
2018-09-25T06:17:35.804Z,3.09
2018-09-25T06:20:13.982Z,3.18
2018-09-25T06:23:00.766Z,3.14
2018-09-25T06:25:39.609Z,3.06
2018-09-25T06:28:18.264Z,3.05
2018-09-25T06:30:56.625Z,3.21
2018-09-25T06:33:35.100Z,3.47
2018-09-25T06:36:14.029Z,3.62
2018-09-25T06:38:53.875Z,3.71
2018-09-25T06:41:33.825Z,3.93
2018-09-25T06:44:11.863Z,4.08
2018-09-25T06:46:50.051Z,4.32
2018-09-25T06:49:29.093Z,4.49
2018-09-25T06:52:08.089Z,4.55
2018-09-25T06:54:48.760Z,4.66
2018-09-25T06:57:27.372Z,4.78
2018-09-25T07:00:05.776Z,4.86
2018-09-25T07:02:46.964Z,4.85
2018-09-25T07:05:27.949Z,4.93
2018-09-25T07:08:07.345Z,4.98
2018-09-25T07:10:45.830Z,5.05
2018-09-25T07:13:24.291Z,5.25
2018-09-25T07:16:07.117Z,5.51
2018-09-25T07:18:45.202Z,5.74
2018-09-25T07:21:24.735Z,5.96
2018-09-25T07:24:04.700Z,5.99
2018-09-25T07:26:46.133Z,6.19
2018-09-25T07:29:27.745Z,6.36
2018-09-25T07:32:08.029Z,6.55
2018-09-25T07:34:49.563Z,6.73
2018-09-25T07:37:31.026Z,6.95
2018-09-25T07:40:11.256Z,7.07
2018-09-25T07:42:49.695Z,7.14
2018-09-25T07:45:28.285Z,7.26
2018-09-25T07:48:07.821Z,7.34
2018-09-25T07:50:47.130Z,7.40
2018-09-25T07:53:26.990Z,7.45
2018-09-25T07:56:09.529Z,7.51
2018-09-25T07:58:49.153Z,7.57
2018-09-25T08:01:28.424Z,7.67
2018-09-25T08:04:06.672Z,7.76
2018-09-25T08:06:48.345Z,7.87
2018-09-25T08:09:29.360Z,7.94
2018-09-25T08:12:07.618Z,8.05
2018-09-25T08:14:49.574Z,8.13
2018-09-25T08:17:27.783Z,8.11
2018-09-25T08:20:08.133Z,8.18
2018-09-25T08:22:47.184Z,8.29
2018-09-25T08:25:26.552Z,8.83
2018-09-25T08:28:05.396Z,9.69
2018-09-25T08:30:48.024Z,10.26
2018-09-25T08:33:30.765Z,10.83
2018-09-25T08:36:10.324Z,11.12
2018-09-25T08:38:49.502Z,11.34
2018-09-25T08:41:28.076Z,11.82
2018-09-25T08:44:08.081Z,12.05
2018-09-25T08:46:48.444Z,12.34
2018-09-25T08:49:26.637Z,12.46
2018-09-25T08:52:05.153Z,12.57
2018-09-25T08:54:43.901Z,12.72
2018-09-25T08:57:22.929Z,12.79
2018-09-25T09:00:03.666Z,12.81
2018-09-25T09:02:41.979Z,12.98
2018-09-25T09:05:20.692Z,13.30
2018-09-25T09:08:00.443Z,13.34
2018-09-25T09:10:39.149Z,13.41
2018-09-25T09:13:18.508Z,13.52
2018-09-25T09:15:59.170Z,13.63
2018-09-25T09:18:39.112Z,13.68
2018-09-25T09:21:18.531Z,13.99
2018-09-25T09:23:57.982Z,14.42
2018-09-25T09:26:37.259Z,14.41
2018-09-25T09:29:17.261Z,14.35
2018-09-25T09:31:56.621Z,14.39
2018-09-25T09:34:36.560Z,14.81
2018-09-25T09:37:17.021Z,14.67
2018-09-25T09:39:56.061Z,14.59
2018-09-25T09:42:35.873Z,14.72
2018-09-25T09:45:16.676Z,14.82
2018-09-25T09:47:57.681Z,14.91
2018-09-25T09:50:38.399Z,15.03
2018-09-25T09:53:16.536Z,14.88
2018-09-25T09:55:58.212Z,14.68
2018-09-25T09:58:36.345Z,14.13
2018-09-25T10:01:14.948Z,13.84
2018-09-25T10:03:53.820Z,14.06
2018-09-25T10:06:34.602Z,14.48
2018-09-25T10:09:16.650Z,15.07
2018-09-25T10:11:56.685Z,15.25
2018-09-25T10:14:35.230Z,15.07
2018-09-25T10:17:13.409Z,14.77
2018-09-25T10:19:52.664Z,14.60
2018-09-25T10:22:32.745Z,14.90
2018-09-25T10:25:12.101Z,14.65
2018-09-25T10:27:50.330Z,14.21
2018-09-25T10:30:30.712Z,13.84
2018-09-25T10:33:09.529Z,14.25
2018-09-25T10:35:49.183Z,14.97
2018-09-25T10:38:27.402Z,15.69
2018-09-25T10:41:05.825Z,15.87
2018-09-25T10:43:51.576Z,15.56
2018-09-25T10:46:33.262Z,15.08
2018-09-25T10:49:15.028Z,14.92
2018-09-25T10:51:54.353Z,15.36
2018-09-25T10:54:32.875Z,15.78
2018-09-25T10:57:12.504Z,15.71
2018-09-25T10:59:55.839Z,15.54
2018-09-25T11:02:39.519Z,15.40
2018-09-25T11:05:19.466Z,15.89
2018-09-25T11:07:58.443Z,15.92
2018-09-25T11:10:37.453Z,15.82
2018-09-25T11:13:17.712Z,15.93
2018-09-25T11:15:58.590Z,16.82
2018-09-25T11:18:37.358Z,17.02
2018-09-25T11:21:17.900Z,17.06
2018-09-25T11:23:58.979Z,17.31
2018-09-25T11:26:45.470Z,18.19
2018-09-25T11:29:26.783Z,19.14
2018-09-25T11:32:05.767Z,19.58
2018-09-25T11:34:46.824Z,19.43
2018-09-25T11:37:27.101Z,19.59
2018-09-25T11:40:07.076Z,19.95
2018-09-25T11:42:48.564Z,19.99
2018-09-25T11:45:28.876Z,19.21
2018-09-25T11:48:07.173Z,18.88
2018-09-25T11:50:46.346Z,19.06
2018-09-25T11:53:24.800Z,19.40
2018-09-25T11:56:06.633Z,19.49
2018-09-25T11:58:45.485Z,19.41
2018-09-25T12:01:25.484Z,19.21
2018-09-25T12:04:04.864Z,19.11
2018-09-25T12:06:53.491Z,18.94
2018-09-25T12:09:33.989Z,18.70
2018-09-25T12:12:13.214Z,18.42
2018-09-25T12:14:54.025Z,18.53
2018-09-25T12:17:32.208Z,18.64
2018-09-25T12:20:11.949Z,18.87
2018-09-25T12:22:51.968Z,18.74
2018-09-25T12:25:33.000Z,18.92
2018-09-25T12:28:15.699Z,19.30
2018-09-25T12:30:58.013Z,19.44
2018-09-25T12:33:37.727Z,19.55
2018-09-25T12:36:18.176Z,19.95
2018-09-25T12:38:56.433Z,20.16
2018-09-25T12:41:36.461Z,19.99
2018-09-25T12:44:16.585Z,20.11
2018-09-25T12:46:55.343Z,20.36
2018-09-25T12:49:33.371Z,20.78
2018-09-25T12:52:12.580Z,20.80
2018-09-25T12:54:51.671Z,20.81
2018-09-25T12:57:30.221Z,20.70
2018-09-25T13:00:13.513Z,20.93
2018-09-25T13:02:53.820Z,21.07
2018-09-25T13:05:34.447Z,20.62
2018-09-25T13:08:14.328Z,20.74
2018-09-25T13:10:52.292Z,20.94
2018-09-25T13:13:31.769Z,21.20
2018-09-25T13:16:13.479Z,21.19
2018-09-25T13:18:51.793Z,21.07
2018-09-25T13:21:31.108Z,21.13
2018-09-25T13:24:10.670Z,21.40
2018-09-25T13:26:51.770Z,21.50
2018-09-25T13:29:32.167Z,20.81
2018-09-25T13:32:13.406Z,20.01
2018-09-25T13:34:55.469Z,19.56
2018-09-25T13:37:34.768Z,19.33
2018-09-25T13:40:20.242Z,19.31
2018-09-25T13:43:01.931Z,19.56
2018-09-25T13:45:41.401Z,19.92
2018-09-25T13:48:20.104Z,19.68
2018-09-25T13:50:59.895Z,19.29
2018-09-25T13:53:39.954Z,18.91
2018-09-25T13:56:20.881Z,18.86
2018-09-25T13:59:00.423Z,18.92
2018-09-25T14:01:39.097Z,18.99
2018-09-25T14:04:18.085Z,19.09
2018-09-25T14:06:58.611Z,19.20
2018-09-25T14:09:38.475Z,19.03
2018-09-25T14:12:18.264Z,18.70
2018-09-25T14:14:58.792Z,18.52
2018-09-25T14:17:39.700Z,18.53
2018-09-25T14:20:17.645Z,18.53
2018-09-25T14:22:57.031Z,18.42
2018-09-25T14:25:41.770Z,18.28
2018-09-25T14:28:21.697Z,17.98
2018-09-25T14:31:00.207Z,17.80
2018-09-25T14:33:38.895Z,17.71
2018-09-25T14:36:19.123Z,17.60
2018-09-25T14:39:04.893Z,17.45
2018-09-25T14:41:43.794Z,17.43
2018-09-25T14:44:24.304Z,17.46
2018-09-25T14:47:02.944Z,17.40
2018-09-25T14:49:42.887Z,17.31
2018-09-25T14:52:22.455Z,17.36
2018-09-25T14:55:01.240Z,17.49
2018-09-25T14:57:39.543Z,17.48
2018-09-25T15:00:20.384Z,17.47
2018-09-25T15:02:58.748Z,17.57
2018-09-25T15:05:38.201Z,17.61
2018-09-25T15:08:18.554Z,17.56
2018-09-25T15:10:56.863Z,17.62
2018-09-25T15:13:35.640Z,17.68
2018-09-25T15:16:15.436Z,17.65
2018-09-25T15:18:55.288Z,17.62
2018-09-25T15:21:38.519Z,17.43
2018-09-25T15:24:16.706Z,17.41
2018-09-25T15:26:57.181Z,17.40
2018-09-25T15:29:35.585Z,17.59
2018-09-25T15:32:17.657Z,17.54
2018-09-25T15:34:57.892Z,17.54
2018-09-25T15:37:49.581Z,17.57
2018-09-25T15:40:29.770Z,17.65
2018-09-25T15:43:15.680Z,17.69
2018-09-25T15:45:55.627Z,17.50
2018-09-25T15:48:38.649Z,17.29
2018-09-25T15:51:22.150Z,17.07
2018-09-25T15:54:06.572Z,16.81
2018-09-25T15:56:53.764Z,16.71
2018-09-25T15:59:33.292Z,16.79
2018-09-25T16:02:13.224Z,17.03
2018-09-25T16:04:56.644Z,17.08
2018-09-25T16:07:36.915Z,17.08
2018-09-25T16:10:16.081Z,17.33
2018-09-25T16:12:55.852Z,17.63
2018-09-25T16:15:35.586Z,17.87
2018-09-25T16:18:14.173Z,18.04
2018-09-25T16:20:52.632Z,18.12
2018-09-25T16:23:30.629Z,18.04
2018-09-25T16:26:11.424Z,18.01
2018-09-25T16:28:50.553Z,18.03
2018-09-25T16:31:31.089Z,18.04
2018-09-25T16:34:10.048Z,18.05
2018-09-25T16:36:51.056Z,18.15
2018-09-25T16:39:29.044Z,18.12
2018-09-25T16:42:09.006Z,18.08
2018-09-25T16:44:48.680Z,18.10
2018-09-25T16:47:27.641Z,18.01
2018-09-25T16:50:06.299Z,17.88
2018-09-25T16:52:45.925Z,17.78
2018-09-25T16:55:24.144Z,17.68
2018-09-25T16:58:03.007Z,17.52
2018-09-25T17:00:41.120Z,17.23
2018-09-25T17:03:20.420Z,17.03
2018-09-25T17:06:01.771Z,16.81
2018-09-25T17:08:45.647Z,16.54
2018-09-25T17:11:27.399Z,16.23
2018-09-25T17:14:20.046Z,15.94
2018-09-25T17:16:59.805Z,15.55
2018-09-25T17:19:42.175Z,15.19
2018-09-25T17:22:21.970Z,14.80
2018-09-25T17:25:01.142Z,14.43
2018-09-25T17:27:41.845Z,14.06
2018-09-25T17:30:27.300Z,13.71
2018-09-25T17:33:07.367Z,13.41
2018-09-25T17:35:46.787Z,13.08
2018-09-25T17:38:32.816Z,12.77
2018-09-25T17:41:13.313Z,12.49
2018-09-25T17:43:51.512Z,12.21
2018-09-25T17:46:31.073Z,11.95
2018-09-25T17:49:10.578Z,11.66
2018-09-25T17:51:49.590Z,11.40
2018-09-25T17:54:28.671Z,11.17
2018-09-25T17:57:08.313Z,10.96
2018-09-25T17:59:50.036Z,10.72
2018-09-25T18:02:29.212Z,10.51
2018-09-25T18:05:08.033Z,10.32
2018-09-25T18:07:48.569Z,10.16
2018-09-25T18:10:27.760Z,10.05
2018-09-25T18:13:07.101Z,9.95
2018-09-25T18:15:48.373Z,9.83
2018-09-25T18:18:26.385Z,9.68
2018-09-25T18:21:05.546Z,9.50
2018-09-25T18:23:49.401Z,9.32
2018-09-25T18:26:32.042Z,9.23
2018-09-25T18:29:12.142Z,9.19
2018-09-25T18:31:58.278Z,9.04
2018-09-25T18:34:39.408Z,8.85
2018-09-25T18:37:20.596Z,8.79
2018-09-25T18:40:08.942Z,8.70
2018-09-25T18:42:47.755Z,8.55
2018-09-25T18:45:27.753Z,8.41
2018-09-25T18:48:09.093Z,8.22
2018-09-25T18:50:47.725Z,8.14
2018-09-25T18:53:25.905Z,8.11
2018-09-25T18:56:04.501Z,8.08
2018-09-25T18:58:43.676Z,8.01
2018-09-25T19:01:22.689Z,7.86
2018-09-25T19:04:00.893Z,7.73
2018-09-25T19:06:39.192Z,7.61
2018-09-25T19:09:18.348Z,7.52
2018-09-25T19:11:57.777Z,7.41
2018-09-25T19:14:42.749Z,7.36
2018-09-25T19:17:24.717Z,7.28
2018-09-25T19:20:04.165Z,7.30
2018-09-25T19:22:44.452Z,7.33
2018-09-25T19:25:26.708Z,7.23
2018-09-25T19:28:08.400Z,7.03
2018-09-25T19:30:49.449Z,6.94
2018-09-25T19:33:30.425Z,7.05
2018-09-25T19:36:09.784Z,7.13
2018-09-25T19:38:49.909Z,7.00
2018-09-25T19:41:28.829Z,6.99
2018-09-25T19:44:09.123Z,6.91
2018-09-25T19:46:49.923Z,6.86
2018-09-25T19:49:29.245Z,6.81
2018-09-25T19:52:08.219Z,6.68
2018-09-25T19:54:47.366Z,6.61
2018-09-25T19:57:27.600Z,6.65
2018-09-25T20:00:05.705Z,6.53
2018-09-25T20:02:44.177Z,6.55
2018-09-25T20:05:31.633Z,6.56
2018-09-25T20:08:11.010Z,6.42
2018-09-25T20:10:49.636Z,6.31
2018-09-25T20:13:27.840Z,6.17
2018-09-25T20:16:11.134Z,6.09
2018-09-25T20:18:50.767Z,6.07
2018-09-25T20:21:32.335Z,5.99
2018-09-25T20:24:11.407Z,5.98
2018-09-25T20:26:52.728Z,5.94
2018-09-25T20:32:08.485Z,6.01
2018-09-25T20:34:50.537Z,5.95
2018-09-25T20:37:29.938Z,5.89
2018-09-25T20:40:09.549Z,5.87
2018-09-25T20:42:50.668Z,5.99
2018-09-25T20:45:28.628Z,6.11
2018-09-25T20:48:11.228Z,5.94
2018-09-25T20:50:58.138Z,5.74
2018-09-25T20:53:37.441Z,5.62
2018-09-25T20:56:15.569Z,5.55
2018-09-25T20:58:56.973Z,5.49
2018-09-25T21:01:37.421Z,5.45
2018-09-25T21:04:16.454Z,5.41
2018-09-25T21:06:56.360Z,5.41
2018-09-25T21:09:37.914Z,5.38
2018-09-25T21:12:16.907Z,5.35
2018-09-25T21:14:57.632Z,5.38
2018-09-25T21:17:39.114Z,5.43
2018-09-25T21:20:18.079Z,5.43
2018-09-25T21:22:59.565Z,5.48
2018-09-25T21:25:40.431Z,5.59
2018-09-25T21:28:18.352Z,5.72
2018-09-25T21:30:58.769Z,6.18
2018-09-25T21:33:36.907Z,6.47
2018-09-25T21:36:17.125Z,6.46
2018-09-25T21:38:55.688Z,6.27
2018-09-25T21:41:35.057Z,6.14
2018-09-25T21:44:13.208Z,6.13
2018-09-25T21:46:51.496Z,6.00
2018-09-25T21:49:30.252Z,6.01
2018-09-25T21:52:08.547Z,6.20
2018-09-25T21:54:50.477Z,6.44
2018-09-25T21:57:30.677Z,6.65
2018-09-25T22:00:14.242Z,6.96
2018-09-25T22:02:52.585Z,7.23
2018-09-25T22:05:30.568Z,7.38
2018-09-25T22:08:09.572Z,7.62
2018-09-25T22:10:47.829Z,7.84
2018-09-25T22:13:27.000Z,8.07
2018-09-25T22:16:05.675Z,8.32
2018-09-25T22:18:44.536Z,8.53
2018-09-25T22:21:23.555Z,8.73
2018-09-25T22:24:02.567Z,8.80
2018-09-25T22:26:43.701Z,8.85
2018-09-25T22:29:23.596Z,8.91
2018-09-25T22:32:01.555Z,8.89
2018-09-25T22:34:40.153Z,8.86
2018-09-25T22:37:18.288Z,8.86
2018-09-25T22:39:56.880Z,8.93
2018-09-25T22:42:35.198Z,8.96
2018-09-25T22:45:12.828Z,8.98
2018-09-25T22:47:50.725Z,8.99
2018-09-25T22:50:29.030Z,8.93
2018-09-25T22:53:10.116Z,8.88
2018-09-25T22:55:48.421Z,8.87
2018-09-25T22:58:26.625Z,8.83
2018-09-25T23:01:14.593Z,8.81
2018-09-25T23:03:52.487Z,8.75
2018-09-25T23:06:30.916Z,8.74
2018-09-25T23:09:11.541Z,8.65
2018-09-25T23:11:50.121Z,8.61
2018-09-25T23:14:28.058Z,8.55
2018-09-25T23:17:06.485Z,8.58
2018-09-25T23:19:45.098Z,8.60
2018-09-25T23:22:23.527Z,8.62
2018-09-25T23:25:01.566Z,8.61
2018-09-25T23:27:40.355Z,8.62
2018-09-25T23:30:20.610Z,8.68
2018-09-25T23:32:59.329Z,8.69
2018-09-25T23:35:37.724Z,8.69
2018-09-25T23:38:16.023Z,8.65
2018-09-25T23:41:12.817Z,8.63
2018-09-25T23:44:10.002Z,8.59
2018-09-25T23:46:54.139Z,8.48
2018-09-25T23:49:38.817Z,8.45
2018-09-25T23:52:18.655Z,8.40
2018-09-25T23:55:00.149Z,8.32
2018-09-25T23:57:37.636Z,8.26
